createdAt,value
2023-01-08T00:01:59.409Z,100904.31
2023-01-08T00:05:01.530Z,100909.31
2023-01-08T00:08:05.554Z,100901.53
2023-01-08T00:11:08.031Z,100910.75
2023-01-08T00:14:14.158Z,100909.56
2023-01-08T00:17:16.833Z,100915.84
2023-01-08T00:20:19.055Z,100911.22
2023-01-08T00:23:21.398Z,100913.38
2023-01-08T00:26:24.016Z,100912.03
2023-01-08T00:29:29.677Z,100900.09
2023-01-08T00:32:31.590Z,100891.44
2023-01-08T00:35:33.885Z,100894.78
2023-01-08T00:38:40.493Z,100894.44
2023-01-08T00:41:45.503Z,100879.38
2023-01-08T00:44:48.388Z,100876.66
2023-01-08T00:47:51.889Z,100874.44
2023-01-08T00:50:55.508Z,100868.09
2023-01-08T00:53:57.721Z,100878.75
2023-01-08T00:56:59.914Z,100887.56
2023-01-08T01:00:02.684Z,100879.75
2023-01-08T01:03:05.138Z,100884.44
2023-01-08T01:06:08.359Z,100886.94
2023-01-08T01:09:10.575Z,100902.72
2023-01-08T01:12:12.629Z,100896.44
2023-01-08T01:15:16.685Z,100898.94
2023-01-08T01:18:18.837Z,100902.22
2023-01-08T01:21:30.820Z,100901.97
2023-01-08T01:24:33.583Z,100903.28
2023-01-08T01:27:36.241Z,100895.81
2023-01-08T01:30:38.624Z,100892.91
2023-01-08T01:33:41.476Z,100887.41
2023-01-08T01:36:43.837Z,100883.16
2023-01-08T01:39:48.760Z,100880.91
2023-01-08T01:42:51.018Z,100870.31
2023-01-08T01:45:58.412Z,100864.97
2023-01-08T01:49:12.318Z,100860.31
2023-01-08T01:52:14.915Z,100840.56
2023-01-08T01:55:18.157Z,100848.81
2023-01-08T01:58:24.384Z,100846.50
2023-01-08T02:01:27.288Z,100842.00
2023-01-08T02:04:29.304Z,100835.78
2023-01-08T02:07:48.451Z,100820.19
2023-01-08T02:11:32.295Z,100825.06
2023-01-08T02:14:43.549Z,100814.84
2023-01-08T02:17:53.650Z,100819.84
2023-01-08T02:21:07.809Z,100822.66
2023-01-08T02:24:19.893Z,100816.56
2023-01-08T02:27:25.525Z,100815.00
2023-01-08T02:30:27.971Z,100805.91
2023-01-08T02:33:30.521Z,100814.03
2023-01-08T02:36:32.978Z,100805.78
2023-01-08T02:39:38.413Z,100806.59
2023-01-08T02:42:51.206Z,100809.06
2023-01-08T02:45:59.952Z,100811.97
2023-01-08T02:49:07.484Z,100801.88
2023-01-08T02:52:13.052Z,100799.38
2023-01-08T02:55:17.244Z,100801.28
2023-01-08T02:58:22.061Z,100797.75
2023-01-08T03:01:26.386Z,100793.81
2023-01-08T03:04:31.633Z,100802.84
2023-01-08T03:07:34.395Z,100791.91
2023-01-08T03:10:39.171Z,100787.91
2023-01-08T03:13:51.079Z,100788.28
2023-01-08T03:17:02.230Z,100782.25
2023-01-08T03:20:14.288Z,100781.44
2023-01-08T03:23:18.347Z,100775.69
2023-01-08T03:26:25.035Z,100774.59
2023-01-08T03:29:29.111Z,100776.00
2023-01-08T03:32:31.490Z,100776.16
2023-01-08T03:35:36.004Z,100768.47
2023-01-08T03:38:42.866Z,100757.88
2023-01-08T03:41:46.416Z,100759.41
2023-01-08T03:44:48.610Z,100753.94
2023-01-08T03:47:52.289Z,100768.00
2023-01-08T03:50:54.307Z,100759.63
2023-01-08T03:53:59.848Z,100756.09
2023-01-08T03:57:02.191Z,100759.91
2023-01-08T04:00:05.677Z,100750.28
2023-01-08T04:03:08.035Z,100750.41
2023-01-08T04:06:10.405Z,100758.25
2023-01-08T04:09:13.788Z,100753.03
2023-01-08T04:12:17.404Z,100748.78
2023-01-08T04:15:19.470Z,100751.69
2023-01-08T04:18:21.760Z,100752.44
2023-01-08T04:21:24.347Z,100747.22
2023-01-08T04:24:26.366Z,100746.63
2023-01-08T04:27:28.481Z,100751.88
2023-01-08T04:30:31.274Z,100738.97
2023-01-08T04:33:34.223Z,100749.53
2023-01-08T04:36:38.599Z,100748.97
2023-01-08T04:39:41.330Z,100745.81
2023-01-08T04:42:43.622Z,100756.47
2023-01-08T04:45:46.019Z,100753.94
2023-01-08T04:48:48.183Z,100755.28
2023-01-08T04:51:50.123Z,100755.16
2023-01-08T04:54:52.236Z,100757.38
2023-01-08T04:57:54.604Z,100759.38
2023-01-08T05:00:56.556Z,100759.03
2023-01-08T05:04:01.159Z,100751.91
2023-01-08T05:07:04.364Z,100751.59
2023-01-08T05:10:06.948Z,100752.91
2023-01-08T05:13:09.330Z,100754.63
2023-01-08T05:16:11.357Z,100746.94
2023-01-08T05:19:14.073Z,100750.31
2023-01-08T05:22:16.179Z,100743.78
2023-01-08T05:25:18.332Z,100738.44
2023-01-08T05:28:20.500Z,100732.28
2023-01-08T05:31:22.806Z,100732.69
2023-01-08T05:34:24.797Z,100728.75
2023-01-08T05:37:29.713Z,100732.44
2023-01-08T05:40:31.710Z,100740.22
2023-01-08T05:43:33.765Z,100736.00
2023-01-08T05:46:35.832Z,100733.75
2023-01-08T05:49:37.910Z,100724.63
2023-01-08T05:52:42.728Z,100731.03
2023-01-08T05:55:44.888Z,100722.16
2023-01-08T05:58:47.033Z,100722.28
2023-01-08T06:01:48.992Z,100709.16
2023-01-08T06:04:51.099Z,100710.94
2023-01-08T06:07:53.049Z,100704.75
2023-01-08T06:10:55.607Z,100697.66
2023-01-08T06:13:57.659Z,100707.19
2023-01-08T06:16:59.755Z,100705.50
2023-01-08T06:20:02.211Z,100699.38
2023-01-08T06:23:04.524Z,100688.53
2023-01-08T06:26:07.145Z,100695.16
2023-01-08T06:29:09.498Z,100699.34
2023-01-08T06:32:11.546Z,100697.59
2023-01-08T06:35:13.915Z,100701.19
2023-01-08T06:38:19.352Z,100687.63
2023-01-08T06:41:22.003Z,100688.00
2023-01-08T06:44:25.574Z,100697.75
2023-01-08T06:47:27.722Z,100700.63
2023-01-08T06:50:31.376Z,100694.72
2023-01-08T06:53:33.571Z,100689.53
2023-01-08T06:56:45.490Z,100700.63
2023-01-08T06:59:51.278Z,100700.91
2023-01-08T07:02:54.549Z,100704.19
2023-01-08T07:05:57.073Z,100694.75
2023-01-08T07:08:59.394Z,100697.38
2023-01-08T07:12:01.468Z,100701.22
2023-01-08T07:15:04.103Z,100705.47
2023-01-08T07:18:11.612Z,100699.94
2023-01-08T07:21:14.340Z,100698.47
2023-01-08T07:24:16.327Z,100699.44
2023-01-08T07:27:19.165Z,100700.25
2023-01-08T07:30:29.754Z,100702.44
2023-01-08T07:33:32.417Z,100698.75
2023-01-08T07:36:34.218Z,100707.00
2023-01-08T07:39:36.183Z,100691.75
2023-01-08T07:42:39.040Z,100694.91
2023-01-08T07:45:41.527Z,100689.53
2023-01-08T07:48:43.541Z,100685.59
2023-01-08T07:51:46.102Z,100677.66
2023-01-08T07:54:49.279Z,100687.91
2023-01-08T07:57:51.433Z,100689.03
2023-01-08T08:00:53.938Z,100685.28
2023-01-08T08:03:56.670Z,100682.56
2023-01-08T08:06:58.730Z,100668.31
2023-01-08T08:10:02.081Z,100675.13
2023-01-08T08:13:04.256Z,100672.72
2023-01-08T08:16:06.958Z,100668.47
2023-01-08T08:19:09.013Z,100671.63
2023-01-08T08:22:11.577Z,100669.44
2023-01-08T08:25:17.163Z,100665.88
2023-01-08T08:28:20.136Z,100655.72
2023-01-08T08:31:22.912Z,100652.19
2023-01-08T08:34:25.361Z,100648.88
2023-01-08T08:37:27.320Z,100648.22
2023-01-08T08:40:30.824Z,100637.38
2023-01-08T08:43:33.821Z,100632.16
2023-01-08T08:46:37.691Z,100630.81
2023-01-08T08:49:40.452Z,100639.59
2023-01-08T08:52:45.165Z,100634.94
2023-01-08T08:55:47.534Z,100636.00
2023-01-08T08:58:51.397Z,100641.50
2023-01-08T09:01:53.774Z,100642.44
2023-01-08T09:04:56.849Z,100639.59
2023-01-08T09:07:59.012Z,100637.81
2023-01-08T09:11:02.787Z,100636.56
2023-01-08T09:14:06.790Z,100635.88
2023-01-08T09:17:09.481Z,100636.44
2023-01-08T09:20:12.349Z,100626.84
2023-01-08T09:23:14.913Z,100632.72
2023-01-08T09:26:17.244Z,100621.50
2023-01-08T09:29:19.710Z,100624.50
2023-01-08T09:32:22.353Z,100624.72
2023-01-08T09:35:24.755Z,100617.66
2023-01-08T09:38:29.637Z,100617.38
2023-01-08T09:41:35.913Z,100619.41
2023-01-08T09:44:43.475Z,100610.72
2023-01-08T09:47:46.126Z,100603.09
2023-01-08T09:50:49.411Z,100584.19
2023-01-08T09:53:56.888Z,100578.06
2023-01-08T09:57:00.474Z,100575.69
2023-01-08T10:00:03.746Z,100565.50
2023-01-08T10:03:13.363Z,100572.84
2023-01-08T10:06:17.244Z,100556.66
2023-01-08T10:09:24.326Z,100550.13
2023-01-08T10:12:30.285Z,100547.69
2023-01-08T10:15:33.856Z,100540.22
2023-01-08T10:18:37.439Z,100532.53
2023-01-08T10:21:41.431Z,100526.16
2023-01-08T10:24:44.210Z,100518.06
2023-01-08T10:27:50.886Z,100525.75
2023-01-08T10:30:54.956Z,100514.41
2023-01-08T10:33:57.551Z,100514.97
2023-01-08T10:36:59.803Z,100508.75
2023-01-08T10:40:31.941Z,100510.09
2023-01-08T10:43:37.559Z,100502.75
2023-01-08T10:46:45.964Z,100493.66
2023-01-08T10:49:49.725Z,100488.44
2023-01-08T10:53:00.639Z,100485.16
2023-01-08T10:56:05.719Z,100476.97
2023-01-08T10:59:23.555Z,100480.47
2023-01-08T11:02:39.745Z,100477.41
2023-01-08T11:05:43.223Z,100463.25
2023-01-08T11:08:58.239Z,100473.16
2023-01-08T11:12:01.389Z,100468.66
2023-01-08T11:15:07.343Z,100462.19
2023-01-08T11:18:21.985Z,100445.03
2023-01-08T11:21:26.784Z,100442.38
2023-01-08T11:24:32.625Z,100430.97
2023-01-08T11:27:42.832Z,100417.47
2023-01-08T11:30:53.792Z,100425.06
2023-01-08T11:34:03.653Z,100413.50
2023-01-08T11:37:15.387Z,100407.53
2023-01-08T11:40:21.980Z,100397.53
2023-01-08T11:43:46.605Z,100393.59
2023-01-08T11:47:23.089Z,100393.47
2023-01-08T11:50:29.794Z,100395.63
2023-01-08T11:53:38.035Z,100383.56
2023-01-08T11:56:58.684Z,100380.66
2023-01-08T12:00:14.342Z,100367.44
2023-01-08T12:03:26.482Z,100361.97
2023-01-08T12:06:43.403Z,100364.06
2023-01-08T12:09:51.846Z,100363.09
2023-01-08T12:13:01.887Z,100358.16
2023-01-08T12:16:11.935Z,100360.03
2023-01-08T12:19:45.249Z,100365.72
2023-01-08T12:22:52.456Z,100362.16
2023-01-08T12:26:10.319Z,100360.03
2023-01-08T12:29:28.280Z,100351.72
2023-01-08T12:32:38.109Z,100351.22
2023-01-08T12:35:48.655Z,100354.81
2023-01-08T12:39:01.075Z,100355.16
2023-01-08T12:42:13.779Z,100354.34
2023-01-08T12:45:23.261Z,100346.97
2023-01-08T12:48:29.723Z,100340.44
2023-01-08T12:51:54.832Z,100345.34
2023-01-08T12:55:06.019Z,100343.22
2023-01-08T12:58:32.101Z,100349.56
2023-01-08T13:01:37.149Z,100344.19
2023-01-08T13:04:41.376Z,100341.22
2023-01-08T13:07:47.321Z,100342.22
2023-01-08T13:10:51.929Z,100332.06
2023-01-08T13:14:21.036Z,100335.28
2023-01-08T13:17:25.535Z,100336.66
2023-01-08T13:20:32.017Z,100326.72
2023-01-08T13:23:35.742Z,100327.69
2023-01-08T13:26:38.080Z,100324.56
2023-01-08T13:29:46.025Z,100325.38
2023-01-08T13:32:48.647Z,100318.63
2023-01-08T13:35:51.418Z,100330.94
2023-01-08T13:39:05.544Z,100331.06
2023-01-08T13:42:30.223Z,100327.28
2023-01-08T13:45:33.297Z,100325.31
2023-01-08T13:48:39.169Z,100312.44
2023-01-08T13:51:45.455Z,100319.34
2023-01-08T13:54:49.576Z,100316.75
2023-01-08T13:58:00.568Z,100298.56
2023-01-08T14:01:05.096Z,100320.78
2023-01-08T14:04:08.715Z,100324.00
2023-01-08T14:07:14.015Z,100319.34
2023-01-08T14:10:17.525Z,100317.50
2023-01-08T14:13:28.922Z,100321.91
2023-01-08T14:16:33.585Z,100316.84
2023-01-08T14:19:36.219Z,100320.47
2023-01-08T14:22:41.216Z,100314.75
2023-01-08T14:25:47.558Z,100311.41
2023-01-08T14:28:54.009Z,100308.94
2023-01-08T14:31:59.042Z,100318.75
2023-01-08T14:35:03.994Z,100323.13
2023-01-08T14:38:06.407Z,100319.97
2023-01-08T14:41:15.132Z,100314.03
2023-01-08T14:44:21.091Z,100321.34
2023-01-08T14:47:33.766Z,100322.31
2023-01-08T14:50:39.490Z,100316.75
2023-01-08T14:53:47.979Z,100315.06
2023-01-08T14:56:55.269Z,100311.72
2023-01-08T14:59:59.979Z,100307.59
2023-01-08T15:03:02.421Z,100305.38
2023-01-08T15:06:07.647Z,100307.34
2023-01-08T15:09:32.328Z,100298.09
2023-01-08T15:12:34.794Z,100294.97
2023-01-08T15:15:52.075Z,100301.09
2023-01-08T15:19:07.944Z,100295.63
2023-01-08T15:22:18.746Z,100302.94
2023-01-08T15:25:26.789Z,100301.25
2023-01-08T15:28:29.467Z,100299.19
2023-01-08T15:31:44.837Z,100301.41
2023-01-08T15:34:47.944Z,100293.25
2023-01-08T15:37:50.531Z,100292.63
2023-01-08T15:40:54.741Z,100275.28
2023-01-08T15:43:57.296Z,100282.88
2023-01-08T15:46:59.443Z,100274.47
2023-01-08T15:50:01.703Z,100278.44
2023-01-08T15:53:08.098Z,100277.00
2023-01-08T15:56:10.141Z,100260.38
2023-01-08T15:59:12.566Z,100275.00
2023-01-08T16:02:16.719Z,100266.03
2023-01-08T16:05:22.913Z,100252.84
2023-01-08T16:08:27.138Z,100265.28
2023-01-08T16:11:29.531Z,100259.84
2023-01-08T16:14:34.598Z,100264.91
2023-01-08T16:17:37.362Z,100267.84
2023-01-08T16:20:39.932Z,100258.41
2023-01-08T16:23:42.594Z,100261.34
2023-01-08T16:26:44.906Z,100242.38
2023-01-08T16:29:47.237Z,100250.06
2023-01-08T16:32:53.213Z,100240.75
2023-01-08T16:36:04.006Z,100246.53
2023-01-08T16:39:07.305Z,100246.13
2023-01-08T16:42:12.794Z,100241.72
2023-01-08T16:45:15.088Z,100226.25
2023-01-08T16:48:17.835Z,100244.38
2023-01-08T16:51:21.968Z,100239.34
2023-01-08T16:54:28.441Z,100238.25
2023-01-08T16:57:30.642Z,100245.19
2023-01-08T17:00:32.986Z,100244.63
2023-01-08T17:03:35.266Z,100232.41
2023-01-08T17:06:38.400Z,100216.38
2023-01-08T17:09:43.032Z,100226.31
2023-01-08T17:12:45.198Z,100229.56
2023-01-08T17:15:47.571Z,100224.03
2023-01-08T17:18:50.420Z,100231.03
2023-01-08T17:21:52.792Z,100221.69
2023-01-08T17:24:54.929Z,100225.06
2023-01-08T17:27:57.042Z,100228.16
2023-01-08T17:31:07.826Z,100224.44
2023-01-08T17:34:14.376Z,100218.69
2023-01-08T17:37:16.339Z,100220.50
2023-01-08T17:40:21.849Z,100205.13
2023-01-08T17:43:24.774Z,100202.03
2023-01-08T17:46:27.825Z,100198.88
2023-01-08T17:49:31.181Z,100213.06
2023-01-08T17:52:33.449Z,100211.50
2023-01-08T17:55:37.299Z,100205.84
2023-01-08T17:58:39.692Z,100203.25
2023-01-08T18:01:46.116Z,100205.44
2023-01-08T18:04:49.225Z,100216.72
2023-01-08T18:07:51.602Z,100206.91
2023-01-08T18:10:53.645Z,100198.91
2023-01-08T18:13:57.648Z,100212.91
2023-01-08T18:17:00.843Z,100200.59
2023-01-08T18:20:04.762Z,100204.72
2023-01-08T18:23:07.060Z,100208.66
2023-01-08T18:26:12.348Z,100205.59
2023-01-08T18:29:18.271Z,100211.78
2023-01-08T18:32:26.030Z,100199.44
2023-01-08T18:35:30.536Z,100210.28
2023-01-08T18:38:33.612Z,100214.22
2023-01-08T18:41:55.259Z,100205.38
2023-01-08T18:44:58.051Z,100209.56
2023-01-08T18:48:01.275Z,100206.59
2023-01-08T18:51:07.772Z,100206.63
2023-01-08T18:54:11.316Z,100211.00
2023-01-08T18:57:13.931Z,100207.44
2023-01-08T19:00:18.376Z,100206.44
2023-01-08T19:03:20.426Z,100206.75
2023-01-08T19:06:24.574Z,100202.38
2023-01-08T19:09:27.986Z,100194.56
2023-01-08T19:12:32.513Z,100204.38
2023-01-08T19:15:34.748Z,100196.03
2023-01-08T19:18:38.159Z,100199.47
2023-01-08T19:21:41.123Z,100191.28
2023-01-08T19:24:44.267Z,100191.78
2023-01-08T19:27:47.047Z,100177.56
2023-01-08T19:30:59.665Z,100179.53
2023-01-08T19:34:02.685Z,100167.63
2023-01-08T19:37:05.153Z,100197.00
2023-01-08T19:40:09.100Z,100188.03
2023-01-08T19:43:31.921Z,100176.13
2023-01-08T19:46:35.961Z,100158.31
2023-01-08T19:49:38.785Z,100184.44
2023-01-08T19:52:41.173Z,100183.78
2023-01-08T19:55:45.388Z,100178.72
2023-01-08T19:58:48.279Z,100172.16
2023-01-08T20:01:50.612Z,100180.19
2023-01-08T20:04:53.070Z,100174.13
2023-01-08T20:07:55.400Z,100173.81
2023-01-08T20:10:58.664Z,100168.44
2023-01-08T20:14:03.930Z,100173.47
2023-01-08T20:17:06.342Z,100163.97
2023-01-08T20:20:11.525Z,100162.84
2023-01-08T20:23:17.960Z,100170.03
2023-01-08T20:26:20.473Z,100163.00
2023-01-08T20:29:22.938Z,100165.78
2023-01-08T20:32:24.993Z,100168.56
2023-01-08T20:35:27.263Z,100163.34
2023-01-08T20:38:30.060Z,100157.28
2023-01-08T20:41:32.417Z,100159.41
2023-01-08T20:44:34.705Z,100160.25
2023-01-08T20:47:37.292Z,100153.38
2023-01-08T20:50:45.234Z,100153.19
2023-01-08T20:53:47.278Z,100152.53
2023-01-08T20:56:50.332Z,100157.72
2023-01-08T20:59:52.606Z,100148.44
2023-01-08T21:02:54.834Z,100147.31
2023-01-08T21:05:57.117Z,100149.31
2023-01-08T21:09:03.081Z,100136.41
2023-01-08T21:12:06.231Z,100135.47
2023-01-08T21:15:09.216Z,100137.09
2023-01-08T21:18:11.419Z,100130.72
2023-01-08T21:21:19.327Z,100126.00
2023-01-08T21:24:21.760Z,100132.03
2023-01-08T21:27:23.762Z,100128.59
2023-01-08T21:30:29.475Z,100130.72
2023-01-08T21:33:33.076Z,100136.25
2023-01-08T21:36:35.141Z,100127.78
2023-01-08T21:39:37.186Z,100128.06
2023-01-08T21:42:57.850Z,100130.06
2023-01-08T21:46:03.523Z,100124.53
2023-01-08T21:49:06.951Z,100113.75
2023-01-08T21:52:27.961Z,100111.97
2023-01-08T21:55:31.132Z,100110.75
2023-01-08T21:58:35.834Z,100110.09
2023-01-08T22:01:38.167Z,100104.88
2023-01-08T22:04:40.469Z,100108.63
2023-01-08T22:07:42.934Z,100091.50
2023-01-08T22:10:45.087Z,100099.84
2023-01-08T22:13:48.398Z,100100.31
2023-01-08T22:16:51.007Z,100097.72
2023-01-08T22:19:53.801Z,100081.72
2023-01-08T22:22:55.944Z,100089.38
2023-01-08T22:25:58.414Z,100085.97
2023-01-08T22:29:03.014Z,100092.63
2023-01-08T22:32:05.832Z,100077.94
2023-01-08T22:35:08.662Z,100087.56
2023-01-08T22:38:10.962Z,100086.41
2023-01-08T22:41:17.057Z,100073.38
2023-01-08T22:44:19.463Z,100057.19
2023-01-08T22:47:21.887Z,100070.56
2023-01-08T22:50:24.261Z,100059.50
2023-01-08T22:53:26.820Z,100060.50
2023-01-08T22:56:30.996Z,100055.28
2023-01-08T22:59:36.658Z,100053.50
2023-01-08T23:02:38.848Z,100050.06
2023-01-08T23:05:41.149Z,100037.03
2023-01-08T23:08:44.260Z,100035.22
2023-01-08T23:11:46.937Z,100024.75
2023-01-08T23:14:50.473Z,100020.88
2023-01-08T23:17:54.084Z,100023.28
2023-01-08T23:21:05.162Z,100023.22
2023-01-08T23:24:13.766Z,100020.59
2023-01-08T23:27:16.099Z,100020.97
2023-01-08T23:30:19.980Z,100019.53
2023-01-08T23:33:22.548Z,100014.94
2023-01-08T23:36:25.723Z,100006.84
2023-01-08T23:39:28.445Z,100007.63
2023-01-08T23:42:32.103Z,100007.63
2023-01-08T23:45:35.866Z,99999.16
2023-01-08T23:48:39.864Z,99999.81
2023-01-08T23:51:44.163Z,99996.84
2023-01-08T23:54:46.165Z,99991.28
2023-01-08T23:57:48.520Z,100001.31
